sensor_id;sensor_type;location;lat;lon;timestamp;pressure;altitude;pressure_sealevel;temperature;humidity
40205;BME280;26963;42.666;23.366;2022-12-18T00:01:18;95673.19;;;9.77;65.13
40205;BME280;26963;42.666;23.366;2022-12-18T00:03:44;95677.75;;;9.77;64.94
40205;BME280;26963;42.666;23.366;2022-12-18T00:06:11;95677.19;;;9.75;65.64
40205;BME280;26963;42.666;23.366;2022-12-18T00:08:37;95679.88;;;9.75;64.96
40205;BME280;26963;42.666;23.366;2022-12-18T00:11:07;95675.06;;;9.72;65.11
40205;BME280;26963;42.666;23.366;2022-12-18T00:13:33;95696.44;;;9.72;64.82
40205;BME280;26963;42.666;23.366;2022-12-18T00:16:04;95692.44;;;9.74;64.81
40205;BME280;26963;42.666;23.366;2022-12-18T00:18:30;95688.16;;;9.73;64.64
40205;BME280;26963;42.666;23.366;2022-12-18T00:20:59;95683.59;;;9.69;63.77
40205;BME280;26963;42.666;23.366;2022-12-18T00:23:26;95673.47;;;9.55;63.22
40205;BME280;26963;42.666;23.366;2022-12-18T00:25:51;95704.72;;;9.60;63.32
40205;BME280;26963;42.666;23.366;2022-12-18T00:28:17;95715.13;;;9.56;64.06
40205;BME280;26963;42.666;23.366;2022-12-18T00:30:42;95708.47;;;9.59;64.09
40205;BME280;26963;42.666;23.366;2022-12-18T00:33:08;95679.88;;;9.34;63.32
40205;BME280;26963;42.666;23.366;2022-12-18T00:35:33;95706.03;;;9.42;63.75
40205;BME280;26963;42.666;23.366;2022-12-18T00:37:59;95707.63;;;9.27;64.17
40205;BME280;26963;42.666;23.366;2022-12-18T00:40:24;95721.00;;;9.33;63.64
40205;BME280;26963;42.666;23.366;2022-12-18T00:42:50;95649.34;;;8.83;64.19
40205;BME280;26963;42.666;23.366;2022-12-18T00:45:25;95734.84;;;9.19;63.97
40205;BME280;26963;42.666;23.366;2022-12-18T00:47:52;95647.72;;;8.72;64.56
40205;BME280;26963;42.666;23.366;2022-12-18T00:50:18;95716.66;;;9.11;64.27
40205;BME280;26963;42.666;23.366;2022-12-18T00:52:43;95716.91;;;9.04;64.06
40205;BME280;26963;42.666;23.366;2022-12-18T00:55:09;95638.59;;;8.62;63.99
40205;BME280;26963;42.666;23.366;2022-12-18T00:57:35;95641.19;;;8.47;63.23
40205;BME280;26963;42.666;23.366;2022-12-18T01:00:02;95736.41;;;9.10;63.08
40205;BME280;26963;42.666;23.366;2022-12-18T01:02:27;95681.28;;;8.68;63.69
40205;BME280;26963;42.666;23.366;2022-12-18T01:04:52;95724.09;;;8.93;62.97
40205;BME280;26963;42.666;23.366;2022-12-18T01:07:18;95664.72;;;8.55;63.43
40205;BME280;26963;42.666;23.366;2022-12-18T01:09:43;95655.59;;;8.46;63.01
40205;BME280;26963;42.666;23.366;2022-12-18T01:12:09;95717.91;;;8.88;63.47
40205;BME280;26963;42.666;23.366;2022-12-18T01:14:34;95726.75;;;8.93;63.60
40205;BME280;26963;42.666;23.366;2022-12-18T01:17:01;95720.88;;;8.91;63.25
40205;BME280;26963;42.666;23.366;2022-12-18T01:19:29;95744.91;;;9.02;63.41
40205;BME280;26963;42.666;23.366;2022-12-18T01:21:54;95675.88;;;8.52;63.08
40205;BME280;26963;42.666;23.366;2022-12-18T01:24:20;95682.03;;;8.53;62.94
40205;BME280;26963;42.666;23.366;2022-12-18T01:26:45;95682.56;;;8.49;63.76
40205;BME280;26963;42.666;23.366;2022-12-18T01:29:11;95739.03;;;8.89;63.04
40205;BME280;26963;42.666;23.366;2022-12-18T01:31:36;95744.38;;;8.89;62.72
40205;BME280;26963;42.666;23.366;2022-12-18T01:34:04;95763.00;;;8.84;62.63
40205;BME280;26963;42.666;23.366;2022-12-18T01:36:33;95688.69;;;8.50;62.03
40205;BME280;26963;42.666;23.366;2022-12-18T01:39:00;95739.19;;;8.72;62.52
40205;BME280;26963;42.666;23.366;2022-12-18T01:41:28;95674.41;;;8.24;62.62
40205;BME280;26963;42.666;23.366;2022-12-18T01:47:27;95764.50;;;8.64;63.24
40205;BME280;26963;42.666;23.366;2022-12-18T01:49:54;95757.56;;;8.63;63.20
40205;BME280;26963;42.666;23.366;2022-12-18T01:52:21;95750.06;;;8.55;62.91
40205;BME280;26963;42.666;23.366;2022-12-18T01:54:48;95640.50;;;7.71;62.88
40205;BME280;26963;42.666;23.366;2022-12-18T01:57:14;95755.72;;;8.26;63.01
40205;BME280;26963;42.666;23.366;2022-12-18T01:59:42;95700.06;;;7.92;63.48
40205;BME280;26963;42.666;23.366;2022-12-18T02:02:11;95756.00;;;8.25;63.21
40205;BME280;26963;42.666;23.366;2022-12-18T02:04:37;95713.94;;;7.94;63.27
40205;BME280;26963;42.666;23.366;2022-12-18T02:12:25;95689.06;;;7.51;63.95
40205;BME280;26963;42.666;23.366;2022-12-18T02:17:50;95759.69;;;7.86;63.61
40205;BME280;26963;42.666;23.366;2022-12-18T02:28:24;95803.09;;;8.14;63.04
40205;BME280;26963;42.666;23.366;2022-12-18T02:30:54;95802.59;;;8.17;63.26
40205;BME280;26963;42.666;23.366;2022-12-18T02:33:22;95796.19;;;8.18;62.50
40205;BME280;26963;42.666;23.366;2022-12-18T02:35:50;95798.34;;;8.21;62.80
40205;BME280;26963;42.666;23.366;2022-12-18T02:38:17;95805.00;;;8.19;63.06
40205;BME280;26963;42.666;23.366;2022-12-18T02:40:43;95804.41;;;8.11;63.30
40205;BME280;26963;42.666;23.366;2022-12-18T02:43:12;95798.47;;;8.04;63.34
40205;BME280;26963;42.666;23.366;2022-12-18T02:45:50;95797.63;;;7.98;63.49
40205;BME280;26963;42.666;23.366;2022-12-18T02:48:20;95816.47;;;8.19;63.43
40205;BME280;26963;42.666;23.366;2022-12-18T02:51:04;95763.34;;;7.75;62.42
40205;BME280;26963;42.666;23.366;2022-12-18T02:53:42;95795.94;;;7.87;62.71
40205;BME280;26963;42.666;23.366;2022-12-18T02:56:16;95801.22;;;7.82;63.45
40205;BME280;26963;42.666;23.366;2022-12-18T02:58:54;95822.59;;;7.87;63.45
40205;BME280;26963;42.666;23.366;2022-12-18T03:01:30;95756.03;;;7.32;63.44
40205;BME280;26963;42.666;23.366;2022-12-18T03:04:45;95821.44;;;7.78;63.75
40205;BME280;26963;42.666;23.366;2022-12-18T03:07:23;95837.47;;;7.83;64.04
40205;BME280;26963;42.666;23.366;2022-12-18T03:09:53;95802.34;;;7.59;63.79
40205;BME280;26963;42.666;23.366;2022-12-18T03:12:32;95821.69;;;7.76;63.76
40205;BME280;26963;42.666;23.366;2022-12-18T03:17:36;95833.72;;;7.84;63.53
40205;BME280;26963;42.666;23.366;2022-12-18T03:20:12;95839.63;;;7.86;63.39
40205;BME280;26963;42.666;23.366;2022-12-18T03:22:40;95795.09;;;7.54;63.46
40205;BME280;26963;42.666;23.366;2022-12-18T03:25:09;95763.53;;;7.41;63.34
40205;BME280;26963;42.666;23.366;2022-12-18T03:27:38;95851.09;;;7.87;63.63
40205;BME280;26963;42.666;23.366;2022-12-18T03:30:08;95838.00;;;7.85;62.69
40205;BME280;26963;42.666;23.366;2022-12-18T03:35:07;95849.66;;;7.79;62.68
40205;BME280;26963;42.666;23.366;2022-12-18T03:37:33;95843.09;;;7.59;62.96
40205;BME280;26963;42.666;23.366;2022-12-18T03:39:59;95849.78;;;7.62;62.72
40205;BME280;26963;42.666;23.366;2022-12-18T03:42:28;95870.28;;;7.61;63.27
40205;BME280;26963;42.666;23.366;2022-12-18T03:48:12;95863.72;;;7.47;62.81
40205;BME280;26963;42.666;23.366;2022-12-18T03:50:57;95760.06;;;6.68;63.31
40205;BME280;26963;42.666;23.366;2022-12-18T03:53:52;95890.75;;;7.33;62.94
40205;BME280;26963;42.666;23.366;2022-12-18T03:56:22;95816.94;;;6.84;63.11
40205;BME280;26963;42.666;23.366;2022-12-18T03:58:52;95887.31;;;7.38;63.00
40205;BME280;26963;42.666;23.366;2022-12-18T04:01:21;95814.47;;;7.00;63.05
40205;BME280;26963;42.666;23.366;2022-12-18T04:03:49;95891.47;;;7.51;63.02
40205;BME280;26963;42.666;23.366;2022-12-18T04:06:16;95811.00;;;6.99;62.84
40205;BME280;26963;42.666;23.366;2022-12-18T04:08:43;95825.94;;;7.00;62.52
40205;BME280;26963;42.666;23.366;2022-12-18T04:11:09;95873.03;;;7.22;62.46
40205;BME280;26963;42.666;23.366;2022-12-18T04:13:37;95903.66;;;7.47;62.98
40205;BME280;26963;42.666;23.366;2022-12-18T04:16:03;95831.84;;;7.08;63.49
40205;BME280;26963;42.666;23.366;2022-12-18T04:18:28;95835.88;;;7.10;62.89
40205;BME280;26963;42.666;23.366;2022-12-18T04:20:54;95882.38;;;7.47;62.77
40205;BME280;26963;42.666;23.366;2022-12-18T04:23:19;95913.75;;;7.67;62.61
40205;BME280;26963;42.666;23.366;2022-12-18T04:25:47;95923.84;;;7.65;62.16
40205;BME280;26963;42.666;23.366;2022-12-18T04:28:13;95905.16;;;7.60;61.38
40205;BME280;26963;42.666;23.366;2022-12-18T04:30:38;95907.88;;;7.65;61.31
40205;BME280;26963;42.666;23.366;2022-12-18T04:33:05;95908.56;;;7.55;60.76
40205;BME280;26963;42.666;23.366;2022-12-18T04:35:33;95931.66;;;7.72;62.01
40205;BME280;26963;42.666;23.366;2022-12-18T04:37:58;95931.97;;;7.75;60.77
40205;BME280;26963;42.666;23.366;2022-12-18T04:40:24;95885.53;;;7.44;60.84
40205;BME280;26963;42.666;23.366;2022-12-18T04:42:49;95927.38;;;7.71;60.29
40205;BME280;26963;42.666;23.366;2022-12-18T04:45:15;95945.31;;;7.75;60.00
40205;BME280;26963;42.666;23.366;2022-12-18T04:47:40;95930.78;;;7.66;59.85
40205;BME280;26963;42.666;23.366;2022-12-18T04:50:06;95952.91;;;7.66;60.38
40205;BME280;26963;42.666;23.366;2022-12-18T04:52:31;95937.97;;;7.65;59.69
40205;BME280;26963;42.666;23.366;2022-12-18T04:54:57;95942.81;;;7.68;60.80
40205;BME280;26963;42.666;23.366;2022-12-18T04:57:22;95949.19;;;7.67;60.10
40205;BME280;26963;42.666;23.366;2022-12-18T04:59:48;95905.91;;;7.33;60.70
40205;BME280;26963;42.666;23.366;2022-12-18T05:02:14;95949.94;;;7.63;59.85
40205;BME280;26963;42.666;23.366;2022-12-18T05:04:39;95959.53;;;7.64;59.36
40205;BME280;26963;42.666;23.366;2022-12-18T05:07:04;95925.81;;;7.30;58.87
40205;BME280;26963;42.666;23.366;2022-12-18T05:09:30;95961.84;;;7.55;59.09
40205;BME280;26963;42.666;23.366;2022-12-18T05:11:55;95924.28;;;7.34;59.16
40205;BME280;26963;42.666;23.366;2022-12-18T05:14:21;95972.50;;;7.55;59.75
40205;BME280;26963;42.666;23.366;2022-12-18T05:16:46;95979.34;;;7.51;59.31
40205;BME280;26963;42.666;23.366;2022-12-18T05:19:12;95920.88;;;7.17;58.98
40205;BME280;26963;42.666;23.366;2022-12-18T05:21:38;95974.38;;;7.38;58.71
40205;BME280;26963;42.666;23.366;2022-12-18T05:24:03;95942.41;;;7.15;59.16
40205;BME280;26963;42.666;23.366;2022-12-18T05:26:29;95962.78;;;7.27;59.07
40205;BME280;26963;42.666;23.366;2022-12-18T05:28:54;95995.69;;;7.38;59.18
40205;BME280;26963;42.666;23.366;2022-12-18T05:31:20;96004.47;;;7.38;59.97
40205;BME280;26963;42.666;23.366;2022-12-18T05:33:45;95945.66;;;7.00;59.85
40205;BME280;26963;42.666;23.366;2022-12-18T05:36:11;96019.72;;;7.43;59.35
40205;BME280;26963;42.666;23.366;2022-12-18T05:38:38;96016.47;;;7.41;59.31
40205;BME280;26963;42.666;23.366;2022-12-18T05:41:04;95938.72;;;6.99;59.56
40205;BME280;26963;42.666;23.366;2022-12-18T05:43:31;95987.72;;;7.21;59.04
40205;BME280;26963;42.666;23.366;2022-12-18T05:45:56;95931.00;;;6.81;58.80
40205;BME280;26963;42.666;23.366;2022-12-18T05:48:23;96019.00;;;7.30;58.84
40205;BME280;26963;42.666;23.366;2022-12-18T05:50:50;96017.88;;;7.26;58.65
40205;BME280;26963;42.666;23.366;2022-12-18T05:53:18;95908.91;;;6.63;59.33
40205;BME280;26963;42.666;23.366;2022-12-18T05:55:45;96011.09;;;7.35;59.23
40205;BME280;26963;42.666;23.366;2022-12-18T05:58:12;96007.31;;;7.31;58.68
40205;BME280;26963;42.666;23.366;2022-12-18T06:00:42;96027.56;;;7.32;58.11
40205;BME280;26963;42.666;23.366;2022-12-18T06:03:09;95904.81;;;6.56;58.27
40205;BME280;26963;42.666;23.366;2022-12-18T06:05:40;96029.00;;;7.23;58.03
40205;BME280;26963;42.666;23.366;2022-12-18T06:08:06;95999.34;;;6.97;57.86
40205;BME280;26963;42.666;23.366;2022-12-18T06:10:32;96043.06;;;7.18;57.89
40205;BME280;26963;42.666;23.366;2022-12-18T06:12:58;95997.66;;;6.91;57.84
40205;BME280;26963;42.666;23.366;2022-12-18T06:15:23;96033.06;;;7.09;58.34
40205;BME280;26963;42.666;23.366;2022-12-18T06:17:49;96038.06;;;7.05;57.92
40205;BME280;26963;42.666;23.366;2022-12-18T06:20:15;96037.72;;;7.01;57.72
40205;BME280;26963;42.666;23.366;2022-12-18T06:22:40;96047.91;;;7.05;58.48
40205;BME280;26963;42.666;23.366;2022-12-18T06:25:06;96036.22;;;7.06;58.54
40205;BME280;26963;42.666;23.366;2022-12-18T06:27:32;96040.81;;;6.93;57.72
40205;BME280;26963;42.666;23.366;2022-12-18T06:29:59;96033.06;;;6.92;57.92
40205;BME280;26963;42.666;23.366;2022-12-18T06:32:25;95988.63;;;6.58;58.56
40205;BME280;26963;42.666;23.366;2022-12-18T06:34:50;96067.16;;;7.12;57.59
40205;BME280;26963;42.666;23.366;2022-12-18T06:37:16;96032.25;;;6.91;57.85
40205;BME280;26963;42.666;23.366;2022-12-18T06:39:41;96003.28;;;6.61;57.67
40205;BME280;26963;42.666;23.366;2022-12-18T06:42:07;96077.00;;;7.11;58.61
40205;BME280;26963;42.666;23.366;2022-12-18T06:44:32;96079.34;;;7.08;58.36
40205;BME280;26963;42.666;23.366;2022-12-18T06:46:58;96075.47;;;7.15;59.24
40205;BME280;26963;42.666;23.366;2022-12-18T06:49:23;96078.53;;;7.24;57.98
40205;BME280;26963;42.666;23.366;2022-12-18T06:51:49;96000.81;;;6.88;58.15
40205;BME280;26963;42.666;23.366;2022-12-18T06:54:14;96016.44;;;7.01;58.47
40205;BME280;26963;42.666;23.366;2022-12-18T06:56:40;96061.13;;;7.33;57.45
40205;BME280;26963;42.666;23.366;2022-12-18T06:59:05;96043.78;;;7.14;56.82
40205;BME280;26963;42.666;23.366;2022-12-18T07:01:31;96028.69;;;7.02;56.54
40205;BME280;26963;42.666;23.366;2022-12-18T07:03:57;96041.47;;;7.00;56.09
40205;BME280;26963;42.666;23.366;2022-12-18T07:06:24;96093.22;;;7.44;57.43
40205;BME280;26963;42.666;23.366;2022-12-18T07:08:51;96107.34;;;7.44;56.67
40205;BME280;26963;42.666;23.366;2022-12-18T07:11:17;96099.09;;;7.46;56.84
40205;BME280;26963;42.666;23.366;2022-12-18T07:13:43;96092.91;;;7.40;56.32
40205;BME280;26963;42.666;23.366;2022-12-18T07:16:12;96096.44;;;7.46;56.42
40205;BME280;26963;42.666;23.366;2022-12-18T07:18:38;96050.16;;;7.13;56.45
40205;BME280;26963;42.666;23.366;2022-12-18T07:21:09;96085.47;;;7.42;56.28
40205;BME280;26963;42.666;23.366;2022-12-18T07:23:35;96113.47;;;7.45;55.97
40205;BME280;26963;42.666;23.366;2022-12-18T07:26:05;96090.00;;;7.42;56.45
40205;BME280;26963;42.666;23.366;2022-12-18T07:28:32;96103.97;;;7.49;56.19
40205;BME280;26963;42.666;23.366;2022-12-18T07:31:02;96104.81;;;7.55;55.86
40205;BME280;26963;42.666;23.366;2022-12-18T07:33:28;96111.78;;;7.56;55.21
40205;BME280;26963;42.666;23.366;2022-12-18T07:35:53;96110.91;;;7.50;55.97
40205;BME280;26963;42.666;23.366;2022-12-18T07:38:19;96063.84;;;7.22;55.55
40205;BME280;26963;42.666;23.366;2022-12-18T07:40:44;96081.84;;;7.31;55.71
40205;BME280;26963;42.666;23.366;2022-12-18T07:43:10;96120.81;;;7.55;56.04
40205;BME280;26963;42.666;23.366;2022-12-18T07:45:35;96005.81;;;6.84;55.03
40205;BME280;26963;42.666;23.366;2022-12-18T07:48:01;96130.81;;;7.64;55.30
40205;BME280;26963;42.666;23.366;2022-12-18T07:50:27;96127.56;;;7.62;55.35
40205;BME280;26963;42.666;23.366;2022-12-18T07:52:52;96123.47;;;7.72;55.38
40205;BME280;26963;42.666;23.366;2022-12-18T07:55:18;96063.13;;;7.26;55.36
40205;BME280;26963;42.666;23.366;2022-12-18T07:57:43;96071.44;;;7.30;55.35
40205;BME280;26963;42.666;23.366;2022-12-18T08:00:09;96137.34;;;7.74;55.40
40205;BME280;26963;42.666;23.366;2022-12-18T08:02:35;96147.44;;;7.72;55.27
40205;BME280;26963;42.666;23.366;2022-12-18T08:05:00;96126.47;;;7.58;55.60
40205;BME280;26963;42.666;23.366;2022-12-18T08:07:26;96159.22;;;7.76;55.46
40205;BME280;26963;42.666;23.366;2022-12-18T08:09:51;96075.25;;;7.17;55.07
40205;BME280;26963;42.666;23.366;2022-12-18T08:12:17;96158.59;;;7.51;55.49
40205;BME280;26963;42.666;23.366;2022-12-18T08:14:42;96160.66;;;7.49;56.07
40205;BME280;26963;42.666;23.366;2022-12-18T08:17:08;96164.38;;;7.48;55.91
40205;BME280;26963;42.666;23.366;2022-12-18T08:19:33;96161.00;;;7.53;55.63
40205;BME280;26963;42.666;23.366;2022-12-18T08:21:59;96179.25;;;7.61;54.99
40205;BME280;26963;42.666;23.366;2022-12-18T08:24:24;96106.28;;;7.11;55.85
40205;BME280;26963;42.666;23.366;2022-12-18T08:26:50;96124.75;;;7.18;55.12
40205;BME280;26963;42.666;23.366;2022-12-18T08:29:16;96159.84;;;7.32;55.76
40205;BME280;26963;42.666;23.366;2022-12-18T08:31:42;96165.84;;;7.22;55.48
40205;BME280;26963;42.666;23.366;2022-12-18T08:34:07;96120.63;;;6.93;55.57
40205;BME280;26963;42.666;23.366;2022-12-18T08:36:33;96191.09;;;7.37;55.26
40205;BME280;26963;42.666;23.366;2022-12-18T08:38:58;96193.25;;;7.40;55.61
40205;BME280;26963;42.666;23.366;2022-12-18T08:41:24;96196.75;;;7.40;55.58
40205;BME280;26963;42.666;23.366;2022-12-18T08:43:50;96192.78;;;7.43;55.35
40205;BME280;26963;42.666;23.366;2022-12-18T08:46:39;96185.69;;;7.31;55.23
40205;BME280;26963;42.666;23.366;2022-12-18T08:49:06;96187.59;;;7.19;55.56
40205;BME280;26963;42.666;23.366;2022-12-18T08:51:32;96214.38;;;7.29;55.45
40205;BME280;26963;42.666;23.366;2022-12-18T08:53:58;96165.69;;;7.00;55.28
40205;BME280;26963;42.666;23.366;2022-12-18T08:56:24;96187.59;;;7.19;55.48
40205;BME280;26963;42.666;23.366;2022-12-18T08:58:54;96183.31;;;7.18;54.72
40205;BME280;26963;42.666;23.366;2022-12-18T09:01:20;96141.16;;;6.98;55.18
40205;BME280;26963;42.666;23.366;2022-12-18T09:03:46;96183.00;;;7.31;54.54
40205;BME280;26963;42.666;23.366;2022-12-18T09:06:14;96201.34;;;7.45;53.99
40205;BME280;26963;42.666;23.366;2022-12-18T09:08:41;96194.88;;;7.41;54.34
40205;BME280;26963;42.666;23.366;2022-12-18T09:11:13;96182.31;;;7.36;53.95
40205;BME280;26963;42.666;23.366;2022-12-18T09:13:38;96178.28;;;7.33;54.58
40205;BME280;26963;42.666;23.366;2022-12-18T09:16:04;96147.19;;;7.22;53.69
40205;BME280;26963;42.666;23.366;2022-12-18T09:18:29;96184.38;;;7.51;53.64
40205;BME280;26963;42.666;23.366;2022-12-18T09:20:55;96190.47;;;7.63;52.92
40205;BME280;26963;42.666;23.366;2022-12-18T09:23:21;96202.97;;;7.63;53.41
40205;BME280;26963;42.666;23.366;2022-12-18T09:25:46;96167.22;;;7.42;52.16
40205;BME280;26963;42.666;23.366;2022-12-18T09:28:18;96123.88;;;7.12;52.37
40205;BME280;26963;42.666;23.366;2022-12-18T09:30:48;96195.00;;;7.63;52.91
40205;BME280;26963;42.666;23.366;2022-12-18T09:33:15;96192.94;;;7.70;52.48
40205;BME280;26963;42.666;23.366;2022-12-18T09:35:43;96184.59;;;7.61;52.46
40205;BME280;26963;42.666;23.366;2022-12-18T09:38:14;96205.00;;;7.73;52.04
40205;BME280;26963;42.666;23.366;2022-12-18T09:40:46;96213.53;;;7.75;52.05
40205;BME280;26963;42.666;23.366;2022-12-18T09:45:51;96196.38;;;7.65;51.78
40205;BME280;26963;42.666;23.366;2022-12-18T09:48:26;96191.13;;;7.71;51.55
40205;BME280;26963;42.666;23.366;2022-12-18T09:50:59;96134.69;;;7.40;51.50
40205;BME280;26963;42.666;23.366;2022-12-18T09:53:31;96199.59;;;7.84;51.33
40205;BME280;26963;42.666;23.366;2022-12-18T09:55:58;96200.97;;;7.87;51.77
40205;BME280;26963;42.666;23.366;2022-12-18T09:58:36;96215.91;;;7.88;51.10
40205;BME280;26963;42.666;23.366;2022-12-18T10:01:32;96195.94;;;7.91;50.83
40205;BME280;26963;42.666;23.366;2022-12-18T10:03:57;96201.03;;;7.92;50.73
40205;BME280;26963;42.666;23.366;2022-12-18T10:06:34;96126.31;;;7.48;50.67
40205;BME280;26963;42.666;23.366;2022-12-18T10:27:48;96206.50;;;8.20;50.44
40205;BME280;26963;42.666;23.366;2022-12-18T10:30:19;96197.34;;;8.15;49.92
40205;BME280;26963;42.666;23.366;2022-12-18T10:32:45;96143.38;;;7.86;48.90
40205;BME280;26963;42.666;23.366;2022-12-18T10:35:22;96198.13;;;8.33;49.29
40205;BME280;26963;42.666;23.366;2022-12-18T10:38:01;96206.44;;;8.37;49.23
40205;BME280;26963;42.666;23.366;2022-12-18T10:40:27;96193.38;;;8.35;49.72
40205;BME280;26963;42.666;23.366;2022-12-18T10:43:12;96138.50;;;8.00;50.16
40205;BME280;26963;42.666;23.366;2022-12-18T10:45:38;96191.56;;;8.41;48.59
40205;BME280;26963;42.666;23.366;2022-12-18T10:48:04;96193.84;;;8.49;49.38
40205;BME280;26963;42.666;23.366;2022-12-18T10:50:47;96194.91;;;8.48;48.66
40205;BME280;26963;42.666;23.366;2022-12-18T10:53:19;96180.34;;;8.39;49.05
40205;BME280;26963;42.666;23.366;2022-12-18T10:55:46;96193.19;;;8.42;49.69
40205;BME280;26963;42.666;23.366;2022-12-18T10:58:31;96080.09;;;7.76;48.92
40205;BME280;26963;42.666;23.366;2022-12-18T11:03:58;96193.34;;;8.52;49.16
40205;BME280;26963;42.666;23.366;2022-12-18T11:06:24;96178.69;;;8.32;49.68
40205;BME280;26963;42.666;23.366;2022-12-18T11:09:01;96192.72;;;8.45;49.34
40205;BME280;26963;42.666;23.366;2022-12-18T11:11:28;96121.41;;;7.96;49.50
40205;BME280;26963;42.666;23.366;2022-12-18T11:14:03;96198.91;;;8.28;49.14
40205;BME280;26963;42.666;23.366;2022-12-18T11:16:34;96198.91;;;8.28;49.11
40205;BME280;26963;42.666;23.366;2022-12-18T11:21:56;96136.09;;;7.98;48.73
40205;BME280;26963;42.666;23.366;2022-12-18T11:24:36;96128.22;;;7.87;49.12
40205;BME280;26963;42.666;23.366;2022-12-18T11:27:04;96196.28;;;8.33;48.08
40205;BME280;26963;42.666;23.366;2022-12-18T11:29:36;96189.50;;;8.26;48.21
40205;BME280;26963;42.666;23.366;2022-12-18T11:34:41;96202.69;;;8.32;49.13
40205;BME280;26963;42.666;23.366;2022-12-18T11:37:08;96198.19;;;8.38;48.59
40205;BME280;26963;42.666;23.366;2022-12-18T11:39:45;96181.28;;;8.27;48.40
40205;BME280;26963;42.666;23.366;2022-12-18T11:44:50;96210.16;;;8.36;49.03
40205;BME280;26963;42.666;23.366;2022-12-18T11:47:21;96205.34;;;8.32;48.69
40205;BME280;26963;42.666;23.366;2022-12-18T11:49:51;96200.41;;;8.24;48.79
40205;BME280;26963;42.666;23.366;2022-12-18T11:52:28;96181.63;;;8.14;49.04
40205;BME280;26963;42.666;23.366;2022-12-18T11:55:04;96183.22;;;8.15;48.36
40205;BME280;26963;42.666;23.366;2022-12-18T11:57:58;96203.09;;;8.24;48.48
40205;BME280;26963;42.666;23.366;2022-12-18T12:00:25;96205.94;;;8.18;48.07
40205;BME280;26963;42.666;23.366;2022-12-18T12:11:00;96140.31;;;7.77;49.05
40205;BME280;26963;42.666;23.366;2022-12-18T12:19:04;96202.53;;;8.22;48.80
40205;BME280;26963;42.666;23.366;2022-12-18T12:21:45;96155.72;;;7.92;49.10
40205;BME280;26963;42.666;23.366;2022-12-18T12:32:21;96216.31;;;8.36;49.61
40205;BME280;26963;42.666;23.366;2022-12-18T12:40:03;96204.44;;;8.27;48.77
40205;BME280;26963;42.666;23.366;2022-12-18T12:42:34;96213.28;;;8.27;48.17
40205;BME280;26963;42.666;23.366;2022-12-18T12:45:30;96198.19;;;8.16;48.37
40205;BME280;26963;42.666;23.366;2022-12-18T12:48:01;96210.47;;;8.17;48.58
40205;BME280;26963;42.666;23.366;2022-12-18T12:50:27;96183.41;;;7.91;49.09
40205;BME280;26963;42.666;23.366;2022-12-18T12:52:55;96210.38;;;8.12;48.62
40205;BME280;26963;42.666;23.366;2022-12-18T12:55:24;96229.13;;;8.17;48.50
40205;BME280;26963;42.666;23.366;2022-12-18T12:58:02;96224.91;;;8.21;48.85
40205;BME280;26963;42.666;23.366;2022-12-18T13:00:49;96192.53;;;7.95;49.36
40205;BME280;26963;42.666;23.366;2022-12-18T13:09:03;96234.94;;;8.14;50.03
40205;BME280;26963;42.666;23.366;2022-12-18T13:14:36;96244.81;;;8.13;50.19
40205;BME280;26963;42.666;23.366;2022-12-18T13:17:27;96186.50;;;7.83;49.84
40205;BME280;26963;42.666;23.366;2022-12-18T13:20:07;96241.22;;;8.08;50.27
40205;BME280;26963;42.666;23.366;2022-12-18T13:22:37;96233.81;;;8.10;49.94
40205;BME280;26963;42.666;23.366;2022-12-18T13:28:10;96184.75;;;7.72;49.41
40205;BME280;26963;42.666;23.366;2022-12-18T13:30:41;96255.78;;;8.17;49.29
40205;BME280;26963;42.666;23.366;2022-12-18T13:40:59;96255.13;;;7.93;49.25
40205;BME280;26963;42.666;23.366;2022-12-18T13:43:28;96265.22;;;8.08;49.44
40205;BME280;26963;42.666;23.366;2022-12-18T13:48:54;96265.66;;;7.99;49.68
40205;BME280;26963;42.666;23.366;2022-12-18T13:51:21;96270.97;;;7.99;49.51
40205;BME280;26963;42.666;23.366;2022-12-18T13:53:57;96270.41;;;7.97;49.51
40205;BME280;26963;42.666;23.366;2022-12-18T13:56:31;96278.41;;;7.97;49.63
40205;BME280;26963;42.666;23.366;2022-12-18T13:59:26;96282.75;;;8.04;49.57
40205;BME280;26963;42.666;23.366;2022-12-18T14:02:00;96285.44;;;8.04;49.71
40205;BME280;26963;42.666;23.366;2022-12-18T14:04:35;96284.84;;;8.02;49.69
40205;BME280;26963;42.666;23.366;2022-12-18T14:07:05;96225.34;;;7.62;50.26
40205;BME280;26963;42.666;23.366;2022-12-18T14:09:39;96243.91;;;7.74;49.94
40205;BME280;26963;42.666;23.366;2022-12-18T14:12:05;96233.66;;;7.65;50.12
40205;BME280;26963;42.666;23.366;2022-12-18T14:14:51;96285.19;;;8.05;50.04
40205;BME280;26963;42.666;23.366;2022-12-18T14:17:17;96266.28;;;7.90;49.61
40205;BME280;26963;42.666;23.366;2022-12-18T14:19:49;96284.84;;;8.02;49.90
40205;BME280;26963;42.666;23.366;2022-12-18T14:22:24;96212.72;;;7.57;50.34
40205;BME280;26963;42.666;23.366;2022-12-18T14:27:43;96292.47;;;8.10;49.67
40205;BME280;26963;42.666;23.366;2022-12-18T14:30:38;96298.50;;;8.05;49.22
40205;BME280;26963;42.666;23.366;2022-12-18T14:33:19;96302.00;;;8.06;49.86
40205;BME280;26963;42.666;23.366;2022-12-18T14:36:05;96288.41;;;7.90;48.80
40205;BME280;26963;42.666;23.366;2022-12-18T14:38:32;96314.75;;;8.04;49.35
40205;BME280;26963;42.666;23.366;2022-12-18T14:41:00;96251.25;;;7.66;49.02
40205;BME280;26963;42.666;23.366;2022-12-18T14:43:27;96245.19;;;7.54;48.98
40205;BME280;26963;42.666;23.366;2022-12-18T14:45:53;96304.56;;;8.00;49.16
40205;BME280;26963;42.666;23.366;2022-12-18T14:51:04;96301.81;;;7.95;48.84
40205;BME280;26963;42.666;23.366;2022-12-18T14:54:16;96298.25;;;7.90;48.37
40205;BME280;26963;42.666;23.366;2022-12-18T14:59:32;96301.00;;;7.78;47.76
40205;BME280;26963;42.666;23.366;2022-12-18T15:02:14;96309.38;;;7.70;47.80
40205;BME280;26963;42.666;23.366;2022-12-18T15:04:43;96299.13;;;7.61;48.15
40205;BME280;26963;42.666;23.366;2022-12-18T15:07:22;96304.84;;;7.70;48.18
40205;BME280;26963;42.666;23.366;2022-12-18T15:12:49;96311.38;;;7.62;47.96